createdAt,value
2023-12-17T00:01:37.239Z,88.40
2023-12-17T00:04:06.659Z,88.60
2023-12-17T00:06:37.170Z,88.70
2023-12-17T00:09:06.812Z,89.00
2023-12-17T00:11:42.486Z,88.90
2023-12-17T00:14:13.396Z,88.50
2023-12-17T00:16:41.672Z,89.00
2023-12-17T00:19:10.107Z,88.90
2023-12-17T00:21:38.747Z,88.90
2023-12-17T00:24:08.494Z,88.80
2023-12-17T00:26:36.730Z,88.50
2023-12-17T00:29:04.867Z,88.70
2023-12-17T00:31:33.035Z,88.80
2023-12-17T00:34:01.861Z,88.80
2023-12-17T00:36:30.607Z,88.50
2023-12-17T00:38:58.988Z,88.40
2023-12-17T00:41:28.413Z,88.40
2023-12-17T00:43:56.487Z,88.20
2023-12-17T00:46:24.604Z,88.00
2023-12-17T00:48:52.982Z,88.40
2023-12-17T00:51:21.755Z,88.50
2023-12-17T00:53:50.004Z,88.20
2023-12-17T00:56:18.754Z,88.00
2023-12-17T00:58:48.208Z,88.20
2023-12-17T01:01:17.118Z,88.30
2023-12-17T01:03:52.640Z,88.30
2023-12-17T01:06:21.061Z,88.80
2023-12-17T01:08:49.925Z,88.50
2023-12-17T01:11:18.567Z,88.20
2023-12-17T01:13:48.033Z,88.10
2023-12-17T01:16:16.190Z,88.30
2023-12-17T01:18:44.924Z,89.40
2023-12-17T01:21:13.233Z,88.50
2023-12-17T01:23:41.851Z,88.60
2023-12-17T01:26:10.235Z,88.70
2023-12-17T01:28:38.768Z,88.50
2023-12-17T01:31:09.866Z,88.30
2023-12-17T01:33:38.154Z,88.50
2023-12-17T01:36:07.384Z,88.50
2023-12-17T01:38:35.684Z,88.50
2023-12-17T01:41:04.415Z,88.60
2023-12-17T01:43:33.301Z,88.60
2023-12-17T01:46:02.344Z,88.40
2023-12-17T01:48:32.984Z,88.40
2023-12-17T01:51:01.441Z,88.30
2023-12-17T01:53:31.406Z,88.40
2023-12-17T01:55:59.605Z,88.20
2023-12-17T01:58:29.132Z,88.00
2023-12-17T02:00:58.814Z,88.00
2023-12-17T02:03:27.026Z,88.20
2023-12-17T02:05:57.203Z,88.00
2023-12-17T02:08:25.313Z,87.90
2023-12-17T02:10:55.508Z,87.80
2023-12-17T02:13:23.615Z,87.90
2023-12-17T02:15:52.182Z,88.00
2023-12-17T02:18:20.387Z,87.90
2023-12-17T02:20:48.567Z,87.90
2023-12-17T02:23:18.597Z,88.00
2023-12-17T02:25:46.983Z,88.00
2023-12-17T02:28:15.097Z,88.20
2023-12-17T02:30:43.835Z,88.20
2023-12-17T02:33:12.122Z,88.00
2023-12-17T02:35:40.373Z,88.20
2023-12-17T02:38:09.008Z,88.50
2023-12-17T02:40:38.467Z,88.80
2023-12-17T02:43:07.077Z,88.60
2023-12-17T02:45:35.139Z,88.90
2023-12-17T02:48:03.880Z,88.60
2023-12-17T02:50:32.036Z,88.40
2023-12-17T02:53:00.129Z,88.40
2023-12-17T02:55:28.378Z,88.30
2023-12-17T02:57:57.855Z,88.10
2023-12-17T03:00:26.034Z,88.20
2023-12-17T03:02:54.842Z,88.20
2023-12-17T03:05:24.020Z,88.20
2023-12-17T03:07:52.155Z,88.00
2023-12-17T03:10:20.287Z,88.10
2023-12-17T03:12:48.896Z,88.60
2023-12-17T03:15:18.904Z,88.90
2023-12-17T03:17:47.089Z,88.80
2023-12-17T03:20:15.453Z,88.90
2023-12-17T03:22:44.024Z,88.90
2023-12-17T03:25:12.141Z,89.00
2023-12-17T03:27:40.380Z,88.90
2023-12-17T03:30:09.872Z,88.90
2023-12-17T03:32:39.985Z,89.00
2023-12-17T03:35:09.379Z,88.80
2023-12-17T03:37:37.692Z,88.90
2023-12-17T03:40:06.776Z,88.80
2023-12-17T03:42:35.371Z,88.70
2023-12-17T03:45:04.047Z,88.50
2023-12-17T03:47:32.419Z,88.40
2023-12-17T03:50:01.641Z,88.50
2023-12-17T03:52:30.298Z,88.40
2023-12-17T03:54:58.347Z,88.20
2023-12-17T03:57:26.476Z,88.00
2023-12-17T03:59:55.134Z,87.90
2023-12-17T04:02:23.333Z,87.90
2023-12-17T04:04:51.969Z,88.30
2023-12-17T04:07:21.459Z,88.30
2023-12-17T04:09:50.373Z,88.40
2023-12-17T04:12:19.066Z,88.30
2023-12-17T04:14:47.270Z,88.00
2023-12-17T04:17:15.333Z,87.80
2023-12-17T04:19:43.550Z,89.00
2023-12-17T04:22:12.201Z,87.40
2023-12-17T04:24:41.749Z,87.50
2023-12-17T04:27:10.339Z,87.20
2023-12-17T04:29:38.449Z,87.30
2023-12-17T04:32:07.424Z,87.10
2023-12-17T04:34:35.561Z,86.90
2023-12-17T04:37:04.900Z,86.70
2023-12-17T04:39:32.998Z,86.80
2023-12-17T04:42:02.488Z,86.90
2023-12-17T04:44:31.112Z,87.00
2023-12-17T04:46:59.222Z,87.10
2023-12-17T04:49:27.944Z,88.20
2023-12-17T04:51:56.172Z,87.30
2023-12-17T04:54:24.345Z,87.20
2023-12-17T04:56:56.079Z,87.70
2023-12-17T04:59:27.319Z,88.10
2023-12-17T05:01:55.891Z,88.40
2023-12-17T05:04:24.626Z,88.70
2023-12-17T05:06:52.781Z,88.80
2023-12-17T05:09:21.536Z,88.80
2023-12-17T05:11:50.904Z,89.00
2023-12-17T05:14:19.081Z,89.10
2023-12-17T05:16:48.989Z,89.10
2023-12-17T05:19:17.257Z,89.30
2023-12-17T05:21:45.976Z,89.50
2023-12-17T05:24:14.129Z,89.60
2023-12-17T05:26:42.856Z,89.80
2023-12-17T05:29:11.246Z,89.80
2023-12-17T05:31:39.426Z,89.60
2023-12-17T05:34:10.329Z,89.30
2023-12-17T05:36:38.584Z,89.30
2023-12-17T05:39:07.446Z,89.30
2023-12-17T05:41:36.053Z,89.10
2023-12-17T05:44:04.182Z,89.10
2023-12-17T05:46:32.782Z,89.20
2023-12-17T05:49:01.036Z,89.10
2023-12-17T05:54:19.945Z,88.90
2023-12-17T05:56:48.120Z,89.10
2023-12-17T05:59:16.722Z,88.90
2023-12-17T06:01:45.303Z,88.80
2023-12-17T06:04:13.525Z,88.70
2023-12-17T06:06:43.707Z,88.80
2023-12-17T06:09:11.835Z,88.80
2023-12-17T06:11:39.953Z,88.70
2023-12-17T06:14:08.528Z,88.70
2023-12-17T06:16:42.865Z,88.80
2023-12-17T06:19:11.612Z,88.80
2023-12-17T06:21:39.953Z,88.70
2023-12-17T06:24:10.104Z,88.80
2023-12-17T06:26:38.347Z,88.50
2023-12-17T06:29:06.508Z,88.40
2023-12-17T06:31:35.245Z,88.30
2023-12-17T06:34:03.480Z,88.20
2023-12-17T06:36:32.224Z,89.00
2023-12-17T06:39:00.377Z,88.00
2023-12-17T06:41:30.345Z,88.00
2023-12-17T06:43:58.411Z,87.60
2023-12-17T06:46:27.104Z,87.50
2023-12-17T06:48:55.780Z,88.20
2023-12-17T06:51:24.020Z,87.40
2023-12-17T06:53:54.366Z,87.10
2023-12-17T06:56:22.682Z,86.90
2023-12-17T06:58:54.104Z,86.90
2023-12-17T07:01:22.189Z,87.10
2023-12-17T07:03:50.930Z,87.30
2023-12-17T07:06:19.156Z,87.40
2023-12-17T07:08:49.538Z,87.10
2023-12-17T07:11:18.156Z,86.90
2023-12-17T07:13:46.217Z,86.70
2023-12-17T07:16:23.293Z,86.70
2023-12-17T07:18:51.548Z,86.40
2023-12-17T07:21:20.187Z,87.60
2023-12-17T07:23:48.583Z,87.70
2023-12-17T07:26:17.388Z,87.60
2023-12-17T07:28:45.496Z,87.50
2023-12-17T07:31:13.633Z,87.30
2023-12-17T07:33:44.258Z,87.50
2023-12-17T07:36:12.645Z,87.50
2023-12-17T07:38:41.237Z,87.60
2023-12-17T07:41:09.359Z,87.50
2023-12-17T07:43:37.485Z,87.60
2023-12-17T07:46:06.408Z,87.80
2023-12-17T07:48:35.098Z,88.30
2023-12-17T07:51:05.286Z,88.50
2023-12-17T07:53:33.445Z,88.80
2023-12-17T07:56:01.547Z,88.90
2023-12-17T07:58:33.079Z,88.70
2023-12-17T08:01:01.722Z,88.90
2023-12-17T08:03:29.929Z,88.60
2023-12-17T08:05:58.850Z,88.50
2023-12-17T08:08:28.318Z,88.70
2023-12-17T08:10:57.039Z,88.90
2023-12-17T08:13:25.601Z,89.20
2023-12-17T08:15:53.741Z,89.10
2023-12-17T08:18:21.918Z,89.40
2023-12-17T08:20:50.665Z,89.50
2023-12-17T08:23:19.337Z,89.30
2023-12-17T08:25:49.303Z,89.30
2023-12-17T08:28:20.964Z,89.50
2023-12-17T08:30:49.347Z,89.60
2023-12-17T08:33:18.854Z,89.70
2023-12-17T08:35:49.185Z,89.80
2023-12-17T08:38:17.327Z,89.90
2023-12-17T08:40:49.437Z,89.60
2023-12-17T08:43:17.521Z,89.50
2023-12-17T08:45:46.232Z,89.80
2023-12-17T08:48:14.547Z,89.60
2023-12-17T08:50:42.708Z,89.70
2023-12-17T08:53:10.838Z,89.70
2023-12-17T08:55:38.977Z,89.70
2023-12-17T08:58:08.447Z,89.80
2023-12-17T09:00:36.625Z,90.00
2023-12-17T09:03:04.882Z,90.10
2023-12-17T09:05:33.010Z,90.20
2023-12-17T09:08:01.119Z,90.20
2023-12-17T09:10:29.699Z,90.20
2023-12-17T09:12:57.823Z,90.20
2023-12-17T09:15:28.543Z,90.20
2023-12-17T09:17:56.814Z,90.40
2023-12-17T09:20:25.094Z,90.30
2023-12-17T09:22:53.737Z,90.30
2023-12-17T09:25:21.912Z,90.30
2023-12-17T09:27:53.311Z,90.30
2023-12-17T09:30:21.590Z,90.40
2023-12-17T09:32:52.412Z,90.40
2023-12-17T09:35:21.813Z,90.50
2023-12-17T09:37:49.880Z,90.50
2023-12-17T09:40:18.610Z,90.40
2023-12-17T09:42:50.181Z,90.40
2023-12-17T09:45:19.265Z,90.50
2023-12-17T09:47:47.525Z,90.40
2023-12-17T09:50:17.150Z,90.40
2023-12-17T09:52:45.794Z,90.50
2023-12-17T09:55:16.767Z,90.50
2023-12-17T09:57:45.305Z,90.70
2023-12-17T10:00:15.634Z,90.60
2023-12-17T10:02:44.108Z,90.70
2023-12-17T10:05:12.346Z,90.70
2023-12-17T10:07:42.176Z,90.70
2023-12-17T10:10:12.017Z,90.80
2023-12-17T10:12:40.476Z,90.90
2023-12-17T10:15:12.296Z,90.90
2023-12-17T10:17:40.756Z,90.90
2023-12-17T10:20:10.661Z,90.80
2023-12-17T10:22:39.239Z,90.80
2023-12-17T10:25:25.852Z,90.90
2023-12-17T10:27:58.851Z,90.80
2023-12-17T10:30:32.306Z,90.80
2023-12-17T10:33:02.219Z,90.80
2023-12-17T10:35:32.296Z,90.90
2023-12-17T10:38:02.148Z,91.00
2023-12-17T10:40:32.707Z,91.00
2023-12-17T10:43:01.999Z,91.00
2023-12-17T10:45:32.810Z,91.00
2023-12-17T10:48:03.127Z,91.00
2023-12-17T10:50:31.271Z,91.40
2023-12-17T10:52:59.883Z,91.00
2023-12-17T10:55:28.504Z,91.10
2023-12-17T10:58:01.307Z,91.10
2023-12-17T11:00:33.782Z,91.20
2023-12-17T11:03:07.351Z,91.20
2023-12-17T11:05:35.653Z,91.30
2023-12-17T11:08:04.865Z,91.20
2023-12-17T11:10:39.906Z,91.30
2023-12-17T11:13:09.672Z,91.20
2023-12-17T11:15:40.326Z,91.30
2023-12-17T11:18:09.832Z,91.20
2023-12-17T11:20:42.987Z,91.30
2023-12-17T11:23:11.761Z,91.20
2023-12-17T11:25:42.350Z,91.10
2023-12-17T11:28:20.715Z,91.10
2023-12-17T11:30:51.075Z,91.10
2023-12-17T11:33:19.942Z,91.00
2023-12-17T11:35:49.323Z,91.00
2023-12-17T11:38:18.008Z,90.90
2023-12-17T11:40:46.623Z,90.80
2023-12-17T11:43:17.895Z,90.80
2023-12-17T11:45:47.391Z,90.70
2023-12-17T11:48:17.993Z,90.80
2023-12-17T11:50:48.230Z,90.80
2023-12-17T11:53:18.312Z,90.80
2023-12-17T11:55:48.585Z,90.80
2023-12-17T11:58:21.747Z,90.80
2023-12-17T12:01:07.547Z,90.80
2023-12-17T12:03:36.611Z,90.80
2023-12-17T12:06:10.045Z,90.80
2023-12-17T12:08:41.359Z,90.70
2023-12-17T12:11:12.593Z,90.70
2023-12-17T12:13:45.104Z,90.70
2023-12-17T12:16:14.372Z,90.70
2023-12-17T12:18:42.914Z,90.70
2023-12-17T12:21:18.938Z,90.70
2023-12-17T12:23:54.729Z,90.50
2023-12-17T12:26:23.397Z,90.50
2023-12-17T12:28:59.578Z,90.50
2023-12-17T12:31:28.443Z,90.40
2023-12-17T12:33:59.440Z,90.70
2023-12-17T12:36:28.559Z,90.40
2023-12-17T12:39:03.644Z,90.30
2023-12-17T12:41:32.254Z,90.30
2023-12-17T12:44:02.709Z,90.30
2023-12-17T12:46:31.150Z,90.30
2023-12-17T12:49:00.521Z,90.20
2023-12-17T12:51:31.218Z,90.20
2023-12-17T12:54:00.417Z,90.10
2023-12-17T12:56:28.610Z,90.20
2023-12-17T12:58:57.163Z,90.10
2023-12-17T13:01:26.706Z,90.20
2023-12-17T13:03:55.110Z,90.10
2023-12-17T13:06:25.409Z,90.10
2023-12-17T13:08:53.593Z,90.30
2023-12-17T13:11:21.829Z,90.30
2023-12-17T13:13:51.123Z,90.40
2023-12-17T13:16:19.181Z,90.40
2023-12-17T13:18:55.748Z,90.30
2023-12-17T13:21:29.993Z,90.40
2023-12-17T13:23:58.957Z,90.50
2023-12-17T13:26:27.114Z,90.40
2023-12-17T13:28:55.825Z,90.20
2023-12-17T13:31:23.957Z,90.10
2023-12-17T13:33:54.142Z,89.90
2023-12-17T13:36:22.406Z,89.50
2023-12-17T13:38:50.611Z,89.20
2023-12-17T13:41:19.131Z,89.10
2023-12-17T13:43:48.001Z,88.60
2023-12-17T13:46:16.192Z,88.50
2023-12-17T13:48:44.775Z,88.50
2023-12-17T13:51:14.570Z,87.80
2023-12-17T13:53:49.230Z,87.50
2023-12-17T13:56:17.372Z,87.20
2023-12-17T13:58:46.687Z,86.40
2023-12-17T14:01:14.876Z,85.80
2023-12-17T14:03:43.697Z,85.90
2023-12-17T14:06:16.240Z,86.00
2023-12-17T14:08:44.870Z,86.90
2023-12-17T14:11:14.710Z,85.90
2023-12-17T14:13:44.357Z,85.80
2023-12-17T14:16:15.982Z,85.50
2023-12-17T14:18:44.367Z,85.60
2023-12-17T14:21:14.054Z,85.90
2023-12-17T14:23:42.934Z,86.10
2023-12-17T14:26:11.172Z,86.30
2023-12-17T14:28:39.731Z,86.40
2023-12-17T14:31:08.707Z,86.50
2023-12-17T14:33:36.938Z,86.50
2023-12-17T14:36:06.050Z,86.40
2023-12-17T14:38:35.540Z,86.60
2023-12-17T14:41:05.328Z,86.70
2023-12-17T14:43:33.559Z,86.80
2023-12-17T14:46:03.120Z,86.80
2023-12-17T14:48:32.455Z,86.90
2023-12-17T14:51:00.792Z,87.10
2023-12-17T14:53:28.985Z,87.00
2023-12-17T14:55:58.783Z,87.00
2023-12-17T14:58:26.936Z,87.30
2023-12-17T15:00:55.591Z,87.20
2023-12-17T15:03:24.388Z,87.00
2023-12-17T15:05:53.350Z,87.40
2023-12-17T15:08:21.588Z,87.60
2023-12-17T15:10:49.772Z,87.80
2023-12-17T15:13:19.393Z,87.70
2023-12-17T15:15:47.473Z,87.60
2023-12-17T15:18:16.040Z,87.60
2023-12-17T15:20:44.461Z,87.60
2023-12-17T15:23:13.075Z,87.60
2023-12-17T15:25:41.155Z,87.70
2023-12-17T15:28:09.387Z,87.60
2023-12-17T15:30:39.256Z,87.60
2023-12-17T15:33:08.139Z,87.70
2023-12-17T15:35:36.772Z,87.70
2023-12-17T15:38:06.729Z,87.90
2023-12-17T15:40:35.198Z,88.00
2023-12-17T15:43:03.327Z,88.00
2023-12-17T15:45:32.807Z,87.90
2023-12-17T15:48:03.448Z,87.90
2023-12-17T15:50:31.668Z,87.90
2023-12-17T15:52:59.996Z,88.00
2023-12-17T15:55:28.092Z,88.00
2023-12-17T15:57:56.221Z,88.10
2023-12-17T16:00:24.713Z,88.10
2023-12-17T16:02:53.141Z,88.10
2023-12-17T16:05:22.736Z,88.10
2023-12-17T16:07:52.008Z,88.10
2023-12-17T16:10:20.204Z,88.20
2023-12-17T16:12:49.010Z,88.50
2023-12-17T16:15:17.522Z,88.30
2023-12-17T16:17:46.022Z,88.40
2023-12-17T16:20:14.214Z,88.40
2023-12-17T16:22:44.409Z,88.40
2023-12-17T16:25:12.996Z,88.50
2023-12-17T16:27:41.867Z,88.50
2023-12-17T16:30:10.676Z,88.50
2023-12-17T16:32:40.463Z,88.60
2023-12-17T16:35:11.043Z,88.50
2023-12-17T16:37:42.681Z,88.60
2023-12-17T16:40:13.424Z,88.60
2023-12-17T16:42:42.181Z,88.80
2023-12-17T16:45:11.988Z,88.90
2023-12-17T16:47:40.656Z,89.10
2023-12-17T16:50:10.484Z,89.30
2023-12-17T16:52:39.570Z,89.60
2023-12-17T16:55:08.381Z,89.80
2023-12-17T16:57:37.916Z,90.00
2023-12-17T17:00:07.460Z,90.00
2023-12-17T17:02:35.926Z,90.00
2023-12-17T17:05:04.502Z,90.00
2023-12-17T17:07:32.664Z,90.00
2023-12-17T17:10:00.753Z,90.00
2023-12-17T17:12:28.952Z,89.80
2023-12-17T17:14:58.517Z,89.70
2023-12-17T17:17:26.751Z,89.60
2023-12-17T17:19:55.109Z,89.40
2023-12-17T17:22:23.778Z,89.20
2023-12-17T17:24:51.849Z,89.10
2023-12-17T17:27:20.004Z,88.80
2023-12-17T17:29:48.856Z,88.60
2023-12-17T17:32:18.524Z,88.60
2023-12-17T17:34:46.661Z,88.70
2023-12-17T17:37:14.762Z,88.80
2023-12-17T17:39:42.876Z,88.80
2023-12-17T17:42:13.006Z,88.80
2023-12-17T17:44:41.205Z,88.80
2023-12-17T17:47:09.475Z,89.00
2023-12-17T17:49:39.104Z,89.00
2023-12-17T17:52:08.175Z,89.10
2023-12-17T17:54:36.473Z,89.20
2023-12-17T17:57:05.072Z,89.20
2023-12-17T17:59:35.814Z,89.40
2023-12-17T18:02:04.560Z,90.00
2023-12-17T18:04:31.873Z,89.20
2023-12-17T18:07:01.513Z,89.20
2023-12-17T18:09:30.658Z,89.10
2023-12-17T18:12:02.873Z,89.20
2023-12-17T18:14:31.174Z,89.20
2023-12-17T18:16:59.256Z,89.30
2023-12-17T18:19:28.272Z,89.40
2023-12-17T18:21:57.634Z,89.50
2023-12-17T18:24:27.162Z,89.50
2023-12-17T18:27:01.407Z,89.60
2023-12-17T18:29:29.616Z,89.80
2023-12-17T18:31:57.867Z,89.90
2023-12-17T18:34:28.526Z,89.90
2023-12-17T18:36:56.910Z,89.80
2023-12-17T18:39:27.022Z,89.80
2023-12-17T18:41:55.199Z,89.80
2023-12-17T18:44:23.331Z,89.70
2023-12-17T18:46:51.478Z,89.80
2023-12-17T18:49:19.737Z,89.90
2023-12-17T18:51:48.441Z,89.90
2023-12-17T18:54:16.553Z,89.80
2023-12-17T18:56:46.097Z,89.90
2023-12-17T18:59:14.221Z,89.90
2023-12-17T19:01:42.366Z,90.00
2023-12-17T19:04:10.634Z,89.80
2023-12-17T19:06:39.766Z,89.60
2023-12-17T19:09:10.231Z,89.70
2023-12-17T19:11:38.500Z,89.80
2023-12-17T19:14:07.965Z,89.60
2023-12-17T19:16:36.036Z,89.70
2023-12-17T19:19:04.293Z,89.60
2023-12-17T19:21:32.564Z,89.60
2023-12-17T19:24:00.754Z,89.60
2023-12-17T19:26:28.864Z,89.40
2023-12-17T19:28:56.974Z,89.20
2023-12-17T19:31:26.458Z,89.20
2023-12-17T19:33:55.060Z,89.40
2023-12-17T19:36:24.545Z,89.60
2023-12-17T19:38:52.702Z,89.70
2023-12-17T19:41:20.840Z,89.50
2023-12-17T19:43:48.939Z,89.50
2023-12-17T19:46:17.130Z,89.60
2023-12-17T19:48:46.703Z,89.40
2023-12-17T19:51:15.591Z,89.30
2023-12-17T19:53:45.101Z,89.30
2023-12-17T19:56:15.824Z,89.20
2023-12-17T19:58:45.133Z,88.70
2023-12-17T20:01:13.633Z,88.70
2023-12-17T20:03:43.912Z,88.90
2023-12-17T20:06:13.786Z,89.20
2023-12-17T20:08:42.383Z,89.30
2023-12-17T20:11:11.334Z,90.00
2023-12-17T20:13:39.968Z,89.40
2023-12-17T20:16:09.633Z,89.50
2023-12-17T20:18:38.204Z,89.70
2023-12-17T20:21:06.587Z,89.70
2023-12-17T20:23:38.012Z,89.40
2023-12-17T20:26:07.420Z,89.30
2023-12-17T20:28:35.660Z,89.10
2023-12-17T20:31:05.741Z,89.10
2023-12-17T20:33:34.703Z,89.30
2023-12-17T20:36:03.002Z,89.20
2023-12-17T20:38:31.240Z,89.20
2023-12-17T20:41:00.678Z,89.20
2023-12-17T20:43:28.836Z,89.30
2023-12-17T20:45:56.910Z,89.30
2023-12-17T20:48:25.607Z,89.30
2023-12-17T20:50:53.903Z,89.50
2023-12-17T20:53:22.045Z,89.50
2023-12-17T20:55:50.237Z,89.70
2023-12-17T20:58:19.770Z,89.70
2023-12-17T21:00:49.418Z,89.50
2023-12-17T21:03:17.883Z,89.50
2023-12-17T21:05:46.201Z,89.40
2023-12-17T21:08:14.475Z,89.50
2023-12-17T21:10:43.170Z,89.70
2023-12-17T21:13:11.794Z,89.70
2023-12-17T21:15:41.354Z,89.50
2023-12-17T21:18:10.082Z,89.60
2023-12-17T21:20:38.301Z,90.20
2023-12-17T21:23:06.394Z,89.50
2023-12-17T21:25:34.473Z,89.30
2023-12-17T21:28:02.698Z,89.30
2023-12-17T21:30:30.982Z,89.50
2023-12-17T21:33:00.708Z,89.50
2023-12-17T21:35:29.662Z,89.40
2023-12-17T21:37:57.778Z,89.40
2023-12-17T21:40:26.511Z,89.30
2023-12-17T21:42:54.592Z,89.30
2023-12-17T21:45:22.783Z,89.40
2023-12-17T21:47:52.630Z,89.40
2023-12-17T21:50:23.308Z,89.40
2023-12-17T21:52:51.521Z,89.50
2023-12-17T21:55:19.631Z,89.30
2023-12-17T21:57:47.772Z,89.30
2023-12-17T22:00:19.170Z,89.30
2023-12-17T22:02:49.894Z,89.50
2023-12-17T22:05:18.896Z,89.50
2023-12-17T22:07:49.688Z,89.70
2023-12-17T22:10:17.980Z,89.90
2023-12-17T22:12:46.665Z,89.70
2023-12-17T22:15:15.138Z,89.70
2023-12-17T22:17:43.582Z,89.50
2023-12-17T22:20:12.426Z,89.40
2023-12-17T22:22:40.529Z,89.50
2023-12-17T22:25:10.518Z,89.40
2023-12-17T22:27:38.713Z,89.60
2023-12-17T22:30:08.426Z,89.60
2023-12-17T22:32:36.818Z,89.60
2023-12-17T22:35:06.080Z,89.30
2023-12-17T22:37:35.347Z,89.30
2023-12-17T22:40:04.253Z,89.30
2023-12-17T22:42:34.008Z,89.20
2023-12-17T22:45:02.229Z,89.20
2023-12-17T22:47:30.702Z,89.20
2023-12-17T22:49:58.924Z,89.20
2023-12-17T22:52:28.209Z,89.20
2023-12-17T22:54:56.449Z,89.30
2023-12-17T22:57:25.143Z,89.30
2023-12-17T22:59:53.632Z,89.30
2023-12-17T23:02:22.094Z,89.20
2023-12-17T23:04:50.196Z,89.20
2023-12-17T23:07:18.876Z,89.10
2023-12-17T23:09:47.413Z,89.10
2023-12-17T23:12:15.618Z,89.40
2023-12-17T23:14:43.827Z,89.50
2023-12-17T23:17:13.259Z,89.50
2023-12-17T23:19:41.387Z,89.70
2023-12-17T23:22:09.535Z,89.70
2023-12-17T23:24:39.179Z,89.60
2023-12-17T23:27:08.194Z,89.50
2023-12-17T23:29:36.525Z,89.40
2023-12-17T23:32:05.081Z,89.40
2023-12-17T23:34:34.576Z,89.70
2023-12-17T23:37:02.813Z,89.80
2023-12-17T23:39:31.119Z,89.80
2023-12-17T23:41:59.310Z,90.30
2023-12-17T23:44:27.413Z,89.30
2023-12-17T23:46:55.510Z,89.60
2023-12-17T23:49:23.824Z,89.50
2023-12-17T23:51:53.313Z,89.40
2023-12-17T23:54:21.456Z,89.60
2023-12-17T23:56:50.061Z,89.30
2023-12-17T23:59:18.168Z,89.40
